createdAt,value
2018-01-31T01:52:20.928Z,3.98
2018-01-31T01:53:11.724Z,3.96
2018-01-31T01:54:11.724Z,4.04
2018-01-31T01:55:11.706Z,4.01
2018-01-31T01:56:11.703Z,4.05
2018-01-31T01:57:11.690Z,3.99
2018-01-31T01:58:11.684Z,4.01
2018-01-31T01:59:11.676Z,4.01
2018-01-31T02:00:11.668Z,4.06
2018-01-31T02:01:11.658Z,4.08
2018-01-31T02:02:11.650Z,4.13
2018-01-31T02:03:11.643Z,4.16
2018-01-31T02:04:11.636Z,4.20
2018-01-31T02:05:11.627Z,4.16
2018-01-31T02:06:11.620Z,4.16
2018-01-31T02:07:11.611Z,4.20
2018-01-31T02:08:11.609Z,4.28
2018-01-31T02:09:11.594Z,4.35
2018-01-31T02:10:11.587Z,4.32
2018-01-31T02:11:11.579Z,4.31
2018-01-31T02:12:11.572Z,4.31
2018-01-31T02:13:11.563Z,4.32
2018-01-31T02:14:11.555Z,4.30
2018-01-31T02:15:11.549Z,4.37
2018-01-31T02:16:11.541Z,4.24
2018-01-31T02:17:11.534Z,4.23
2018-01-31T02:18:11.527Z,4.28
2018-01-31T02:19:11.520Z,4.38
2018-01-31T02:20:11.510Z,4.32
2018-01-31T02:21:11.500Z,4.23
2018-01-31T02:22:11.493Z,4.26
2018-01-31T02:23:11.494Z,4.35
2018-01-31T02:24:11.479Z,4.35
2018-01-31T02:25:11.520Z,4.32
2018-01-31T02:26:11.463Z,4.24
2018-01-31T02:27:11.455Z,4.41
2018-01-31T02:28:11.468Z,4.32
2018-01-31T02:29:11.439Z,4.32
2018-01-31T02:30:11.433Z,4.23
2018-01-31T02:31:11.433Z,4.32
2018-01-31T02:32:11.421Z,4.23
2018-01-31T02:33:11.413Z,4.32
2018-01-31T02:34:11.400Z,4.26
2018-01-31T02:35:11.396Z,4.30
2018-01-31T02:36:11.387Z,4.31
2018-01-31T02:37:11.377Z,4.26
2018-01-31T02:38:11.369Z,4.38
2018-01-31T02:39:11.365Z,4.38
2018-01-31T02:40:11.364Z,4.34
2018-01-31T02:41:11.347Z,4.30
2018-01-31T02:42:11.339Z,4.40
2018-01-31T02:43:11.331Z,4.35
2018-01-31T02:44:11.324Z,4.40
2018-01-31T02:45:11.315Z,4.44
2018-01-31T02:46:11.306Z,4.48
2018-01-31T02:47:11.302Z,4.49
2018-01-31T02:48:11.301Z,4.49
2018-01-31T02:49:11.284Z,4.48
2018-01-31T02:50:11.277Z,4.48
2018-01-31T02:51:11.269Z,4.44
2018-01-31T02:52:11.264Z,4.50
2018-01-31T02:53:11.253Z,4.52
2018-01-31T02:54:11.249Z,4.60
2018-01-31T02:55:11.240Z,4.66
2018-01-31T02:56:11.592Z,4.52
2018-01-31T02:57:11.222Z,4.66
2018-01-31T02:58:11.219Z,4.60
2018-01-31T02:59:11.208Z,4.66
2018-01-31T03:00:11.201Z,4.59
2018-01-31T03:01:11.192Z,4.60
2018-01-31T03:02:11.217Z,4.62
2018-01-31T03:03:11.177Z,4.73
2018-01-31T03:04:11.178Z,4.70
2018-01-31T03:05:11.162Z,4.71
2018-01-31T03:06:11.156Z,4.74
2018-01-31T03:07:11.146Z,4.77
2018-01-31T03:08:11.140Z,4.74
2018-01-31T03:09:11.132Z,4.74
2018-01-31T03:10:11.128Z,4.78
2018-01-31T03:11:11.117Z,4.89
2018-01-31T03:12:11.111Z,4.78
2018-01-31T03:13:11.106Z,4.78
2018-01-31T03:14:11.098Z,4.73
2018-01-31T03:15:11.086Z,4.84
2018-01-31T03:16:11.080Z,4.75
2018-01-31T03:17:11.073Z,4.77
2018-01-31T03:18:11.064Z,4.75
2018-01-31T03:19:11.057Z,4.71
2018-01-31T03:20:11.055Z,4.78
2018-01-31T03:21:11.044Z,4.89
2018-01-31T03:22:11.035Z,4.94
2018-01-31T03:23:11.027Z,4.89
2018-01-31T03:24:11.022Z,4.89
2018-01-31T03:25:11.013Z,4.86
2018-01-31T03:26:11.005Z,4.94
2018-01-31T03:27:10.998Z,4.93
2018-01-31T03:28:10.990Z,4.93
2018-01-31T03:29:10.983Z,4.96
2018-01-31T03:30:10.974Z,5.04
2018-01-31T03:31:11.033Z,5.08
2018-01-31T03:32:10.960Z,4.92
2018-01-31T03:33:10.953Z,5.00
2018-01-31T03:34:10.948Z,5.00
2018-01-31T03:35:10.938Z,5.05
2018-01-31T03:36:10.931Z,5.02
2018-01-31T03:37:10.925Z,5.04
2018-01-31T03:38:10.915Z,5.00
2018-01-31T03:39:10.908Z,5.07
2018-01-31T03:40:10.901Z,5.04
2018-01-31T03:41:10.904Z,5.05
2018-01-31T03:42:10.887Z,5.05
2018-01-31T03:43:10.878Z,5.10
2018-01-31T03:44:10.873Z,5.05
2018-01-31T03:45:10.906Z,5.14
2018-01-31T03:46:10.856Z,5.14
2018-01-31T03:47:10.852Z,5.25
2018-01-31T03:48:10.846Z,5.11
2018-01-31T03:49:11.433Z,5.23
2018-01-31T03:50:10.828Z,5.23
2018-01-31T03:51:10.820Z,5.29
2018-01-31T03:52:10.814Z,5.28
2018-01-31T03:53:10.805Z,5.33
2018-01-31T03:54:10.799Z,5.28
2018-01-31T03:55:10.794Z,5.43
2018-01-31T03:56:10.783Z,5.41
2018-01-31T03:57:10.776Z,5.39
2018-01-31T03:58:10.770Z,5.43
2018-01-31T03:59:10.762Z,5.43
2018-01-31T04:00:10.754Z,5.43
2018-01-31T04:01:10.747Z,5.47
2018-01-31T04:02:10.740Z,5.47
2018-01-31T04:03:10.733Z,5.53
2018-01-31T04:04:10.728Z,5.47
2018-01-31T04:05:10.719Z,5.48
2018-01-31T04:06:10.711Z,5.43
2018-01-31T04:07:10.705Z,5.64
2018-01-31T04:08:10.698Z,5.59
2018-01-31T04:09:10.690Z,5.50
2018-01-31T04:10:10.691Z,5.61
2018-01-31T04:11:10.678Z,5.53
2018-01-31T04:12:10.669Z,5.59
2018-01-31T04:13:10.662Z,5.56
2018-01-31T04:14:10.658Z,5.57
2018-01-31T04:15:10.650Z,5.59
2018-01-31T04:16:10.644Z,5.56
2018-01-31T04:17:10.634Z,5.59
2018-01-31T04:18:34.479Z,5.57
2018-01-31T04:19:10.628Z,5.59
2018-01-31T04:20:10.612Z,5.61
2018-01-31T04:21:10.607Z,5.62
2018-01-31T04:22:10.611Z,5.62
2018-01-31T04:23:10.609Z,5.72
2018-01-31T04:24:11.389Z,5.71
2018-01-31T04:25:10.611Z,5.73
2018-01-31T04:26:10.572Z,5.80
2018-01-31T04:27:10.569Z,5.72
2018-01-31T04:28:10.559Z,5.75
2018-01-31T04:29:10.551Z,5.82
2018-01-31T04:30:10.554Z,5.84
2018-01-31T04:31:10.539Z,5.80
2018-01-31T04:32:10.536Z,5.89
2018-01-31T04:33:10.539Z,5.89
2018-01-31T04:34:10.520Z,5.93
2018-01-31T04:35:10.508Z,5.93
2018-01-31T04:36:10.503Z,5.94
2018-01-31T04:37:10.498Z,5.91
2018-01-31T04:38:10.490Z,5.90
2018-01-31T04:39:10.491Z,5.99
2018-01-31T04:40:10.532Z,5.93
2018-01-31T04:41:10.475Z,6.07
2018-01-31T04:42:10.465Z,5.99
2018-01-31T04:43:10.460Z,6.01
2018-01-31T04:44:10.449Z,6.01
2018-01-31T04:45:10.443Z,5.94
2018-01-31T04:46:10.438Z,6.02
2018-01-31T04:47:10.432Z,6.04
2018-01-31T04:48:10.428Z,6.09
2018-01-31T04:49:10.414Z,6.04
2018-01-31T04:50:10.413Z,6.09
2018-01-31T04:51:10.406Z,6.04
2018-01-31T04:52:10.394Z,6.12
2018-01-31T04:53:10.387Z,6.02
2018-01-31T04:54:10.381Z,6.05
2018-01-31T04:55:10.375Z,6.07
2018-01-31T04:56:10.387Z,6.16
2018-01-31T04:57:10.365Z,6.12
2018-01-31T04:58:10.358Z,6.09
2018-01-31T04:59:10.355Z,6.17
2018-01-31T05:00:10.359Z,6.17
2018-01-31T05:01:10.346Z,6.16
2018-01-31T05:02:10.639Z,6.17
2018-01-31T05:03:10.320Z,6.17
2018-01-31T05:04:10.334Z,6.20
2018-01-31T05:05:10.308Z,6.17
2018-01-31T05:06:10.335Z,6.12
2018-01-31T05:07:10.304Z,6.19
2018-01-31T05:08:10.297Z,6.16
2018-01-31T05:09:10.287Z,6.17
2018-01-31T05:10:10.283Z,6.11
2018-01-31T05:11:10.268Z,6.14
2018-01-31T05:12:10.262Z,6.24
2018-01-31T05:13:10.255Z,6.26
2018-01-31T05:14:10.250Z,6.28
2018-01-31T05:15:10.245Z,6.17
2018-01-31T05:16:10.236Z,6.22
2018-01-31T05:17:10.232Z,6.28
2018-01-31T05:18:10.222Z,6.33
2018-01-31T05:19:10.218Z,6.41
2018-01-31T05:20:10.212Z,6.38
2018-01-31T05:21:14.296Z,6.35
2018-01-31T05:22:10.410Z,6.36
2018-01-31T05:23:10.192Z,6.42
2018-01-31T05:24:10.185Z,6.41
2018-01-31T05:25:10.176Z,6.39
2018-01-31T05:26:10.172Z,6.52
2018-01-31T05:27:10.165Z,6.51
2018-01-31T05:28:10.158Z,6.51
2018-01-31T05:29:10.155Z,6.56
2018-01-31T05:30:10.145Z,6.49
2018-01-31T05:31:10.140Z,6.54
2018-01-31T05:32:10.133Z,6.59
2018-01-31T05:33:10.125Z,6.59
2018-01-31T05:34:10.120Z,6.57
2018-01-31T05:35:10.113Z,6.57
2018-01-31T05:36:10.106Z,6.60
2018-01-31T05:37:10.100Z,6.59
2018-01-31T05:38:10.094Z,6.51
2018-01-31T05:39:10.092Z,6.62
2018-01-31T05:40:10.082Z,6.67
2018-01-31T05:41:10.075Z,6.72
2018-01-31T05:42:10.070Z,6.69
2018-01-31T05:43:10.065Z,6.77
2018-01-31T05:44:10.056Z,6.79
2018-01-31T05:45:10.050Z,6.77
2018-01-31T05:46:10.047Z,6.67
2018-01-31T05:47:10.039Z,6.69
2018-01-31T05:48:10.043Z,6.72
2018-01-31T05:49:10.026Z,6.77
2018-01-31T05:50:10.023Z,6.78
2018-01-31T05:51:10.013Z,6.78
2018-01-31T05:52:10.006Z,6.77
2018-01-31T05:53:09.999Z,6.79
2018-01-31T05:54:09.996Z,6.79
2018-01-31T05:55:10.007Z,6.75
2018-01-31T05:56:09.983Z,6.89
2018-01-31T05:57:09.978Z,6.87
2018-01-31T05:58:09.975Z,6.85
2018-01-31T05:59:09.962Z,6.84
2018-01-31T06:00:09.957Z,6.85
2018-01-31T06:01:09.949Z,6.87
2018-01-31T06:02:09.946Z,6.93
2018-01-31T06:03:09.938Z,6.92
2018-01-31T06:04:09.970Z,6.93
2018-01-31T06:05:09.925Z,6.93
2018-01-31T06:06:09.922Z,6.95
2018-01-31T06:07:09.919Z,6.88
2018-01-31T06:08:09.908Z,6.95
2018-01-31T06:09:09.903Z,6.97
2018-01-31T06:10:09.897Z,7.00
2018-01-31T06:11:09.890Z,7.03
2018-01-31T06:12:09.890Z,7.03
2018-01-31T06:13:09.881Z,7.07
2018-01-31T06:14:09.874Z,7.06
2018-01-31T06:15:09.867Z,7.15
2018-01-31T06:16:09.861Z,7.20
2018-01-31T06:17:09.856Z,7.25
2018-01-31T06:18:09.850Z,7.20
2018-01-31T06:19:09.844Z,7.23
2018-01-31T06:20:09.841Z,7.33
2018-01-31T06:21:09.832Z,7.31
2018-01-31T06:22:09.827Z,7.25
2018-01-31T06:23:09.823Z,7.33
2018-01-31T06:24:09.832Z,7.35
2018-01-31T06:25:09.809Z,7.40
2018-01-31T06:26:09.803Z,7.43
2018-01-31T06:27:09.805Z,7.47
2018-01-31T06:28:09.799Z,7.47
2018-01-31T06:29:09.786Z,7.48
2018-01-31T06:30:09.792Z,7.53
2018-01-31T06:31:09.782Z,7.47
2018-01-31T06:32:09.771Z,7.53
2018-01-31T06:33:09.764Z,7.48
2018-01-31T06:34:09.758Z,7.45
2018-01-31T06:35:09.757Z,7.36
2018-01-31T06:36:09.748Z,7.43
2018-01-31T06:37:09.744Z,7.38
2018-01-31T06:38:09.770Z,7.42
2018-01-31T06:39:09.737Z,7.38
2018-01-31T06:40:09.728Z,7.47
2018-01-31T06:41:09.723Z,7.45
2018-01-31T06:42:09.720Z,7.54
2018-01-31T06:43:09.711Z,7.40
2018-01-31T06:44:09.711Z,7.54
2018-01-31T06:45:09.699Z,7.51
2018-01-31T06:46:09.694Z,7.53
2018-01-31T06:47:09.694Z,7.57
2018-01-31T06:48:09.683Z,7.58
2018-01-31T06:49:09.676Z,7.67
2018-01-31T06:50:09.672Z,7.61
2018-01-31T06:51:09.670Z,7.56
2018-01-31T06:52:09.661Z,7.60
2018-01-31T06:53:09.658Z,7.53
2018-01-31T06:54:09.652Z,7.57
2018-01-31T06:55:09.646Z,7.57
2018-01-31T06:56:09.642Z,7.70
2018-01-31T06:57:09.635Z,7.56
2018-01-31T06:58:09.632Z,7.66
2018-01-31T06:59:09.626Z,7.72
2018-01-31T07:00:09.645Z,7.76
2018-01-31T07:01:09.614Z,7.73
2018-01-31T07:02:09.610Z,7.77
2018-01-31T07:03:09.605Z,7.79
2018-01-31T07:04:09.606Z,7.72
2018-01-31T07:05:09.594Z,7.69
2018-01-31T07:06:09.588Z,7.73
2018-01-31T07:07:09.584Z,7.82
2018-01-31T07:08:09.580Z,7.73
2018-01-31T07:09:09.577Z,7.73
2018-01-31T07:10:09.569Z,7.80
2018-01-31T07:11:09.563Z,7.83
2018-01-31T07:12:09.579Z,7.88
2018-01-31T07:13:09.556Z,7.93
2018-01-31T07:14:09.566Z,7.90
2018-01-31T07:15:09.543Z,7.87
2018-01-31T07:16:09.542Z,7.94
2018-01-31T07:17:09.534Z,7.88
2018-01-31T07:18:09.527Z,7.95
2018-01-31T07:19:09.524Z,7.97
2018-01-31T07:20:09.518Z,7.95
2018-01-31T07:21:09.517Z,7.95
2018-01-31T07:22:09.509Z,7.94
2018-01-31T07:23:09.504Z,7.97
2018-01-31T07:24:09.499Z,8.01
2018-01-31T07:25:09.495Z,7.98
2018-01-31T07:26:09.490Z,8.03
2018-01-31T07:27:09.485Z,8.10
2018-01-31T07:28:09.479Z,8.05
2018-01-31T07:29:09.473Z,8.01
2018-01-31T07:30:09.471Z,8.08
2018-01-31T07:31:09.466Z,8.10
2018-01-31T07:32:09.461Z,8.05
2018-01-31T07:33:09.454Z,8.09
2018-01-31T07:34:09.452Z,8.13
2018-01-31T07:35:09.445Z,8.13
2018-01-31T07:36:09.440Z,8.13
2018-01-31T07:37:09.436Z,8.16
2018-01-31T07:38:09.435Z,8.20
2018-01-31T07:39:09.430Z,8.19
2018-01-31T07:40:09.425Z,8.16
2018-01-31T07:41:09.415Z,8.09
2018-01-31T07:42:09.418Z,8.16
2018-01-31T07:43:09.410Z,8.23
2018-01-31T07:44:09.404Z,8.15
2018-01-31T07:45:09.398Z,8.20
2018-01-31T07:46:09.393Z,8.24
2018-01-31T07:47:09.388Z,8.23
2018-01-31T07:48:09.388Z,8.24
2018-01-31T07:49:09.380Z,8.24
2018-01-31T07:50:09.374Z,8.20
2018-01-31T07:51:09.368Z,8.28
2018-01-31T07:52:09.363Z,8.27
2018-01-31T07:53:09.359Z,8.20
2018-01-31T07:54:09.357Z,8.36
2018-01-31T07:55:09.348Z,8.28
2018-01-31T07:56:09.344Z,8.33
2018-01-31T07:57:09.338Z,8.31
2018-01-31T07:58:09.335Z,8.33
2018-01-31T07:59:09.328Z,8.37
2018-01-31T08:00:09.325Z,8.36
2018-01-31T08:01:09.320Z,8.36
2018-01-31T08:02:09.314Z,8.36
2018-01-31T08:03:09.310Z,8.36
2018-01-31T08:04:09.306Z,8.37
2018-01-31T08:05:09.299Z,8.36
2018-01-31T08:06:09.295Z,8.42
2018-01-31T08:07:09.291Z,8.48
2018-01-31T08:08:09.314Z,8.49
2018-01-31T08:09:09.353Z,8.52
2018-01-31T08:10:09.276Z,8.49
2018-01-31T08:11:09.271Z,8.48
2018-01-31T08:12:09.267Z,8.52
2018-01-31T08:13:09.272Z,8.52
2018-01-31T08:14:09.259Z,8.51
2018-01-31T08:15:09.257Z,8.60
2018-01-31T08:16:09.250Z,8.61
2018-01-31T08:17:09.244Z,8.61
2018-01-31T08:18:09.252Z,8.60
2018-01-31T08:19:09.237Z,8.55
2018-01-31T08:20:09.231Z,8.55
2018-01-31T08:21:09.225Z,8.56
2018-01-31T08:22:09.220Z,8.55
2018-01-31T08:23:09.219Z,8.70
2018-01-31T08:24:09.211Z,8.67
2018-01-31T08:25:09.207Z,8.73
2018-01-31T08:26:09.204Z,8.76
2018-01-31T08:27:09.202Z,8.78
2018-01-31T08:28:09.196Z,8.81
2018-01-31T08:29:09.189Z,8.85
2018-01-31T08:30:09.184Z,8.82
2018-01-31T08:31:09.183Z,8.97
2018-01-31T08:32:09.179Z,8.97
2018-01-31T08:33:09.170Z,9.06
2018-01-31T08:34:09.167Z,9.08
2018-01-31T08:35:09.162Z,9.06
2018-01-31T08:36:09.159Z,9.16
2018-01-31T08:37:09.153Z,9.19
2018-01-31T08:38:09.152Z,9.19
2018-01-31T08:39:09.144Z,9.26
2018-01-31T08:40:09.140Z,9.26
2018-01-31T08:41:09.135Z,9.39
2018-01-31T08:42:09.134Z,9.40
2018-01-31T08:43:09.129Z,9.46
2018-01-31T08:44:09.244Z,9.51
2018-01-31T08:45:09.119Z,9.58
2018-01-31T08:46:09.117Z,9.61
2018-01-31T08:47:09.214Z,9.68
2018-01-31T08:48:09.170Z,9.65
2018-01-31T08:49:09.104Z,9.77
2018-01-31T08:50:09.153Z,9.68
2018-01-31T08:51:09.099Z,9.82
2018-01-31T08:52:09.104Z,9.83
2018-01-31T08:53:09.089Z,9.77
2018-01-31T08:54:09.083Z,9.79
2018-01-31T08:55:09.079Z,9.83
2018-01-31T08:56:09.129Z,9.79
2018-01-31T08:57:09.340Z,9.87
2018-01-31T08:58:09.098Z,9.86
2018-01-31T08:59:09.062Z,9.82
2018-01-31T09:00:09.069Z,9.86
2018-01-31T09:01:09.054Z,9.86
2018-01-31T09:02:09.350Z,9.84
2018-01-31T09:03:09.047Z,9.89
2018-01-31T09:04:09.043Z,9.84
2018-01-31T09:05:09.040Z,9.91
2018-01-31T09:06:09.036Z,9.97
2018-01-31T09:07:09.033Z,9.97
2018-01-31T09:08:09.050Z,9.92
2018-01-31T09:09:09.028Z,9.99
2018-01-31T09:10:09.029Z,9.99
2018-01-31T09:11:09.019Z,10.04
2018-01-31T09:12:09.016Z,10.02
2018-01-31T09:13:09.008Z,10.04
2018-01-31T09:14:09.029Z,10.09
2018-01-31T09:15:09.092Z,10.04
2018-01-31T09:16:08.998Z,10.02
2018-01-31T09:17:08.992Z,10.12
2018-01-31T09:18:08.990Z,10.16
2018-01-31T09:19:08.987Z,10.20
2018-01-31T09:20:08.985Z,10.25
2018-01-31T09:21:08.980Z,10.25
2018-01-31T09:22:08.974Z,10.23
2018-01-31T09:23:08.983Z,10.25
2018-01-31T09:24:08.974Z,10.26
2018-01-31T09:25:08.978Z,10.22
2018-01-31T09:26:08.987Z,10.23
2018-01-31T09:27:08.967Z,10.31
2018-01-31T09:28:08.954Z,10.26
2018-01-31T09:29:08.952Z,10.37
2018-01-31T09:30:08.953Z,10.23
2018-01-31T09:31:08.948Z,10.28
2018-01-31T09:32:08.941Z,10.34
2018-01-31T09:33:08.938Z,10.31
2018-01-31T09:34:08.968Z,10.26
2018-01-31T09:35:08.933Z,10.28
2018-01-31T09:36:08.935Z,10.30
2018-01-31T09:37:08.940Z,10.34
2018-01-31T09:38:08.923Z,10.37
2018-01-31T09:39:09.157Z,10.42
2018-01-31T09:40:09.066Z,10.44
2018-01-31T09:41:09.017Z,10.41
2018-01-31T09:42:09.136Z,10.51
2018-01-31T09:43:09.125Z,10.56
2018-01-31T09:44:09.131Z,10.59
2018-01-31T09:45:09.050Z,10.63
2018-01-31T09:46:09.032Z,10.63
2018-01-31T09:47:09.035Z,10.71
2018-01-31T09:48:09.244Z,10.69
2018-01-31T09:49:08.885Z,10.78
2018-01-31T09:50:08.884Z,10.69
2018-01-31T09:51:09.978Z,10.71
2018-01-31T09:52:08.892Z,10.76
2018-01-31T09:53:09.127Z,10.76
2018-01-31T09:54:08.977Z,10.72
2018-01-31T09:55:09.126Z,10.74
2018-01-31T09:56:09.030Z,10.71
2018-01-31T09:57:08.865Z,10.72
2018-01-31T09:58:08.857Z,10.81
2018-01-31T09:59:08.853Z,10.81
2018-01-31T10:00:08.852Z,10.93
2018-01-31T10:01:08.852Z,10.79
2018-01-31T10:02:08.844Z,10.81
2018-01-31T10:03:08.842Z,10.79
2018-01-31T10:04:08.843Z,10.87
2018-01-31T10:05:08.841Z,10.81
2018-01-31T10:06:08.832Z,10.84
2018-01-31T10:07:08.830Z,10.87
2018-01-31T10:08:08.834Z,10.87
2018-01-31T10:09:08.826Z,10.90
2018-01-31T10:10:08.822Z,10.82
2018-01-31T10:11:08.820Z,10.89
2018-01-31T10:12:08.816Z,10.99
2018-01-31T10:13:08.826Z,10.96
2018-01-31T10:14:08.860Z,10.97
2018-01-31T10:15:08.813Z,10.92
2018-01-31T10:16:08.804Z,10.87
2018-01-31T10:17:08.801Z,10.87
2018-01-31T10:18:09.054Z,10.93
2018-01-31T10:19:08.796Z,10.96
2018-01-31T10:20:08.793Z,10.99
2018-01-31T10:21:08.796Z,11.00
2018-01-31T10:22:08.788Z,11.08
2018-01-31T10:23:08.790Z,11.10
2018-01-31T10:24:08.792Z,11.25
2018-01-31T10:25:08.780Z,11.15
2018-01-31T10:26:08.775Z,11.33
2018-01-31T10:27:08.777Z,11.22
2018-01-31T10:28:08.773Z,11.29
2018-01-31T10:29:08.782Z,11.37
2018-01-31T10:30:08.766Z,11.45
2018-01-31T10:31:08.766Z,11.48
2018-01-31T10:32:08.761Z,11.65
2018-01-31T10:33:08.761Z,11.63
2018-01-31T10:34:08.769Z,11.62
2018-01-31T10:35:08.765Z,11.66
2018-01-31T10:36:08.796Z,11.62
2018-01-31T10:37:08.760Z,11.66
2018-01-31T10:38:08.749Z,11.68
2018-01-31T10:39:08.752Z,11.70
2018-01-31T10:40:08.744Z,11.66
2018-01-31T10:41:08.740Z,11.73
2018-01-31T10:42:08.743Z,11.68
2018-01-31T10:43:08.736Z,11.80
2018-01-31T10:44:08.742Z,11.72
2018-01-31T10:45:08.730Z,11.77
2018-01-31T10:46:08.735Z,11.78
2018-01-31T10:47:08.776Z,11.84
2018-01-31T10:48:08.728Z,11.90
2018-01-31T10:49:08.731Z,11.87
2018-01-31T10:50:08.753Z,11.84
2018-01-31T10:51:08.743Z,11.87
2018-01-31T10:52:08.744Z,11.73
2018-01-31T10:53:08.719Z,11.88
2018-01-31T10:57:29.098Z,11.73
2018-01-31T10:58:08.711Z,11.83
2018-01-31T10:59:08.721Z,11.86
2018-01-31T11:00:08.706Z,11.87
2018-01-31T11:01:08.698Z,11.94
2018-01-31T11:02:08.698Z,11.88
2018-01-31T11:03:08.696Z,11.84
2018-01-31T11:04:08.700Z,11.77
2018-01-31T11:05:08.691Z,11.84
2018-01-31T11:06:08.692Z,11.87
2018-01-31T11:07:08.690Z,11.81
2018-01-31T11:08:08.729Z,11.73
2018-01-31T11:09:08.746Z,11.73
2018-01-31T11:10:08.682Z,11.77
2018-01-31T11:11:08.685Z,11.78
2018-01-31T11:12:08.703Z,11.87
2018-01-31T11:13:08.724Z,11.86
2018-01-31T11:14:08.684Z,11.77
2018-01-31T11:15:08.673Z,11.84
2018-01-31T11:16:08.891Z,11.81
2018-01-31T11:17:08.675Z,11.95
2018-01-31T11:18:08.665Z,11.86
2018-01-31T11:19:08.666Z,11.87
2018-01-31T11:20:08.675Z,11.73
2018-01-31T11:21:08.662Z,11.94
2018-01-31T11:22:08.668Z,11.87
2018-01-31T11:23:08.783Z,11.83
2018-01-31T11:24:08.703Z,11.91
2018-01-31T11:25:08.651Z,11.97
2018-01-31T11:26:08.654Z,11.99
2018-01-31T11:27:08.652Z,11.83
2018-01-31T11:28:08.653Z,11.88
2018-01-31T11:29:08.644Z,11.88
2018-01-31T11:30:08.642Z,11.86
2018-01-31T11:31:08.644Z,11.77
2018-01-31T11:32:08.639Z,11.78
2018-01-31T11:33:08.637Z,11.73
2018-01-31T11:34:08.640Z,11.78
2018-01-31T11:35:08.633Z,11.75
2018-01-31T11:36:08.652Z,11.81
2018-01-31T11:37:08.629Z,11.77
2018-01-31T11:38:08.632Z,11.72
2018-01-31T11:39:08.635Z,11.75
2018-01-31T11:40:08.625Z,11.70
2018-01-31T11:41:08.622Z,11.78
2018-01-31T11:42:08.623Z,11.75
2018-01-31T11:43:09.811Z,11.75
2018-01-31T11:44:08.625Z,11.78
2018-01-31T11:45:08.618Z,11.77
2018-01-31T11:46:08.615Z,11.80
2018-01-31T11:47:08.622Z,11.73
2018-01-31T11:48:08.608Z,11.87
2018-01-31T11:49:08.605Z,11.83
2018-01-31T11:50:08.649Z,11.91
2018-01-31T11:51:08.625Z,11.91
2018-01-31T11:52:08.602Z,11.94
2018-01-31T11:53:08.601Z,11.97
2018-01-31T11:54:08.598Z,12.03
2018-01-31T11:55:08.597Z,12.03
2018-01-31T11:56:08.593Z,12.06
2018-01-31T11:57:08.591Z,12.06
2018-01-31T11:58:08.591Z,12.04
2018-01-31T11:59:08.586Z,12.10
2018-01-31T12:00:08.588Z,12.15
2018-01-31T12:01:08.583Z,12.13
2018-01-31T12:02:08.585Z,12.07
2018-01-31T12:03:08.582Z,12.13
2018-01-31T12:04:08.582Z,12.07
2018-01-31T12:05:08.578Z,11.99
2018-01-31T12:06:08.576Z,12.02
2018-01-31T12:07:08.575Z,12.03
2018-01-31T12:08:08.655Z,12.06
2018-01-31T12:09:08.571Z,12.00
2018-01-31T12:10:08.600Z,12.04
2018-01-31T12:11:08.574Z,12.13
2018-01-31T12:12:08.569Z,12.07
2018-01-31T12:13:08.570Z,12.02
2018-01-31T12:14:08.563Z,12.02
2018-01-31T12:15:08.561Z,12.03
2018-01-31T12:16:08.563Z,12.04
2018-01-31T12:17:08.558Z,12.02
2018-01-31T12:18:08.553Z,12.07
2018-01-31T12:19:08.560Z,11.97
2018-01-31T12:20:08.551Z,12.04
2018-01-31T12:21:08.558Z,12.15
2018-01-31T12:22:08.556Z,12.07
2018-01-31T12:23:08.553Z,12.07
2018-01-31T12:24:09.121Z,12.18
2018-01-31T12:25:08.541Z,12.25
2018-01-31T12:26:08.540Z,12.10
2018-01-31T12:27:08.539Z,12.18
2018-01-31T12:28:08.542Z,12.18
2018-01-31T12:29:08.548Z,12.18
2018-01-31T12:30:08.544Z,12.27
2018-01-31T12:31:08.535Z,12.24
2018-01-31T12:32:08.530Z,12.27
2018-01-31T12:33:08.570Z,12.36
2018-01-31T12:34:08.601Z,12.37
2018-01-31T12:35:08.526Z,12.40
2018-01-31T12:36:08.526Z,12.31
2018-01-31T12:37:08.618Z,12.35
2018-01-31T12:38:08.522Z,12.47
2018-01-31T12:39:08.522Z,12.49
2018-01-31T12:40:08.520Z,12.50
2018-01-31T12:41:08.516Z,12.46
2018-01-31T12:42:08.516Z,12.47
2018-01-31T12:43:08.515Z,12.45
2018-01-31T12:44:08.516Z,12.50
2018-01-31T12:45:08.511Z,12.45
2018-01-31T12:46:08.510Z,12.45
2018-01-31T12:47:08.510Z,12.39
2018-01-31T12:48:08.510Z,12.36
2018-01-31T12:49:08.513Z,12.35
2018-01-31T12:50:08.506Z,12.18
2018-01-31T12:51:08.508Z,12.18
2018-01-31T12:52:08.504Z,12.03
2018-01-31T12:53:08.501Z,12.09
2018-01-31T12:54:08.499Z,12.06
2018-01-31T12:55:08.500Z,12.03
2018-01-31T12:56:08.506Z,11.94
2018-01-31T12:57:08.496Z,11.94
2018-01-31T12:58:08.497Z,11.87
2018-01-31T12:59:08.494Z,11.88
2018-01-31T13:00:08.493Z,11.87
2018-01-31T13:01:08.491Z,11.87
2018-01-31T13:02:08.488Z,11.84
2018-01-31T13:03:08.495Z,11.90
2018-01-31T13:04:08.495Z,11.87
2018-01-31T13:05:08.482Z,11.88
2018-01-31T13:06:08.482Z,11.88
2018-01-31T13:07:08.479Z,11.88
2018-01-31T13:08:08.479Z,11.84
2018-01-31T13:09:08.514Z,11.80
2018-01-31T13:10:08.484Z,11.84
2018-01-31T13:11:08.472Z,11.87
2018-01-31T13:12:08.580Z,11.87
2018-01-31T13:13:08.485Z,11.77
2018-01-31T13:14:08.494Z,11.72
2018-01-31T13:15:08.481Z,11.75
2018-01-31T13:16:08.470Z,11.65
2018-01-31T13:17:08.483Z,11.66
2018-01-31T13:18:08.473Z,11.59
2018-01-31T13:19:08.462Z,11.54
2018-01-31T13:20:08.457Z,11.57
2018-01-31T13:21:08.469Z,11.52
2018-01-31T13:22:08.451Z,11.55
2018-01-31T13:23:08.448Z,11.57
2018-01-31T13:24:08.448Z,11.59
2018-01-31T13:25:08.444Z,11.50
2018-01-31T13:26:08.443Z,11.59
2018-01-31T13:27:08.444Z,11.60
2018-01-31T13:28:08.438Z,11.57
2018-01-31T13:29:08.437Z,11.57
2018-01-31T13:30:17.834Z,11.60
2018-01-31T13:31:08.432Z,11.62
2018-01-31T13:32:08.429Z,11.54
2018-01-31T13:33:08.428Z,11.55
2018-01-31T13:34:08.476Z,11.59
2018-01-31T13:35:08.422Z,11.62
2018-01-31T13:36:08.419Z,11.59
2018-01-31T13:37:08.423Z,11.54
2018-01-31T13:38:08.419Z,11.57
2018-01-31T13:39:08.419Z,11.57
2018-01-31T13:40:08.414Z,11.55
2018-01-31T13:41:08.408Z,11.62
2018-01-31T13:42:08.414Z,11.50
2018-01-31T13:43:08.405Z,11.66
2018-01-31T13:44:08.431Z,11.51
2018-01-31T13:45:08.403Z,11.54
2018-01-31T13:46:08.402Z,11.48
2018-01-31T13:47:08.398Z,11.57
2018-01-31T13:48:08.393Z,11.59
2018-01-31T13:49:08.391Z,11.57
2018-01-31T13:50:08.400Z,11.59
2018-01-31T13:51:08.387Z,11.62
2018-01-31T13:52:08.386Z,11.55
2018-01-31T13:53:08.382Z,11.63
2018-01-31T13:54:08.379Z,11.62
2018-01-31T13:55:08.396Z,11.62
2018-01-31T13:56:08.375Z,11.66
2018-01-31T13:57:08.387Z,11.63
2018-01-31T13:58:08.375Z,11.60
2018-01-31T13:59:08.369Z,11.65
2018-01-31T14:00:08.368Z,11.59
2018-01-31T14:01:08.364Z,11.62
2018-01-31T14:02:08.364Z,11.55
2018-01-31T14:03:08.360Z,11.60
2018-01-31T14:04:08.500Z,11.60
2018-01-31T14:05:08.364Z,11.60
2018-01-31T14:06:08.353Z,11.57
2018-01-31T14:07:08.354Z,11.55
2018-01-31T14:08:08.452Z,11.55
2018-01-31T14:09:08.923Z,11.59
2018-01-31T14:10:08.601Z,11.59
2018-01-31T14:11:10.017Z,11.52
2018-01-31T14:12:09.432Z,11.59
2018-01-31T14:13:08.330Z,11.43
2018-01-31T14:14:08.345Z,11.45
2018-01-31T14:15:08.335Z,11.52
2018-01-31T14:16:08.332Z,11.57
2018-01-31T14:17:08.333Z,11.57
2018-01-31T14:18:08.327Z,11.50
2018-01-31T14:19:08.382Z,11.48
2018-01-31T14:20:08.312Z,11.52
2018-01-31T14:21:08.309Z,11.44
2018-01-31T14:22:08.314Z,11.48
2018-01-31T14:23:08.308Z,11.40
2018-01-31T14:24:08.303Z,11.50
2018-01-31T14:25:08.299Z,11.41
2018-01-31T14:26:08.297Z,11.48
2018-01-31T14:27:08.312Z,11.35
2018-01-31T14:28:08.298Z,11.45
2018-01-31T14:29:08.296Z,11.37
2018-01-31T14:30:08.287Z,11.36
2018-01-31T14:31:08.288Z,11.32
2018-01-31T14:32:08.287Z,11.30
2018-01-31T14:33:08.324Z,11.35
2018-01-31T14:34:08.278Z,11.35
2018-01-31T14:35:08.295Z,11.45
2018-01-31T14:36:08.282Z,11.35
2018-01-31T14:37:08.271Z,11.27
2018-01-31T14:38:08.275Z,11.22
2018-01-31T14:39:08.275Z,11.23
2018-01-31T14:40:08.294Z,11.22
2018-01-31T14:41:08.266Z,11.35
2018-01-31T14:42:08.259Z,11.29
2018-01-31T14:43:08.256Z,11.22
2018-01-31T14:44:10.047Z,11.25
2018-01-31T14:45:08.252Z,11.22
2018-01-31T14:46:08.248Z,11.23
2018-01-31T14:47:08.248Z,11.27
2018-01-31T14:48:08.554Z,11.26
2018-01-31T14:49:08.242Z,11.22
2018-01-31T14:50:08.246Z,11.27
2018-01-31T14:51:08.248Z,11.27
2018-01-31T14:52:08.236Z,11.27
2018-01-31T14:53:08.308Z,11.26
2018-01-31T14:54:08.979Z,11.17
2018-01-31T14:55:08.228Z,11.19
2018-01-31T14:56:08.245Z,11.17
2018-01-31T14:57:08.221Z,11.15
2018-01-31T14:58:08.222Z,11.18
2018-01-31T14:59:08.363Z,11.08
2018-01-31T15:00:08.214Z,11.17
2018-01-31T15:01:08.210Z,11.14